createdAt,value
2022-08-22T00:00:24.715Z,98660.28
2022-08-22T00:02:56.595Z,98689.56
2022-08-22T00:03:03.230Z,98600.47
2022-08-22T00:03:10.645Z,98706.31
2022-08-22T00:03:11.074Z,98692.69
2022-08-22T00:03:15.539Z,98664.75
2022-08-22T00:03:17.338Z,98657.41
2022-08-22T00:05:59.755Z,98667.53
2022-08-22T00:08:45.431Z,98663.19
2022-08-22T00:11:25.876Z,98667.69
2022-08-22T00:14:14.905Z,98655.56
2022-08-22T00:16:54.278Z,98659.78
2022-08-22T00:19:56.739Z,98652.72
2022-08-22T00:22:40.909Z,98643.75
2022-08-22T00:25:24.612Z,98645.50
2022-08-22T00:28:21.495Z,98651.88
2022-08-22T00:31:03.407Z,98644.31
2022-08-22T00:33:56.816Z,98643.88
2022-08-22T00:36:26.203Z,98645.91
2022-08-22T00:39:10.190Z,98615.41
2022-08-22T00:41:58.413Z,98636.47
2022-08-22T00:45:01.170Z,98618.66
2022-08-22T00:47:51.623Z,98625.88
2022-08-22T00:50:54.070Z,98609.56
2022-08-22T00:53:39.509Z,98604.94
2022-08-22T00:56:36.072Z,98607.63
2022-08-22T00:59:27.674Z,98609.38
2022-08-22T01:02:27.596Z,98615.22
2022-08-22T01:05:00.353Z,98582.56
2022-08-22T01:07:39.275Z,98591.63
2022-08-22T01:10:28.121Z,98590.81
2022-08-22T01:13:16.160Z,98606.81
2022-08-22T01:19:35.995Z,98568.91
2022-08-22T01:22:44.978Z,98575.00
2022-08-22T01:25:32.443Z,98576.88
2022-08-22T01:28:22.880Z,98577.75
2022-08-22T01:31:19.783Z,98586.50
2022-08-22T01:34:05.385Z,98588.66
2022-08-22T01:36:45.924Z,98574.00
2022-08-22T01:39:29.036Z,98575.94
2022-08-22T01:42:06.179Z,98570.81
2022-08-22T01:44:39.126Z,98570.00
2022-08-22T01:47:23.183Z,98562.56
2022-08-22T01:49:58.928Z,98567.31
2022-08-22T01:52:46.678Z,98559.63
2022-08-22T01:55:26.615Z,98564.53
2022-08-22T01:57:58.972Z,98568.91
2022-08-22T02:00:35.093Z,98577.75
2022-08-22T02:03:23.706Z,98566.28
2022-08-22T02:05:59.322Z,98565.56
2022-08-22T02:08:32.241Z,98570.94
2022-08-22T02:11:13.216Z,98557.72
2022-08-22T02:14:03.741Z,98558.94
2022-08-22T02:16:39.142Z,98569.19
2022-08-22T02:19:14.514Z,98564.25
2022-08-22T02:21:51.382Z,98562.75
2022-08-22T02:24:33.661Z,98562.44
2022-08-22T02:27:04.395Z,98562.16
2022-08-22T02:29:56.379Z,98553.66
2022-08-22T02:32:33.763Z,98568.75
2022-08-22T02:35:17.452Z,98550.25
2022-08-22T02:37:47.335Z,98550.31
2022-08-22T02:40:22.484Z,98547.63
2022-08-22T02:43:07.653Z,98544.94
2022-08-22T02:45:43.690Z,98548.41
2022-08-22T02:48:32.776Z,98543.88
2022-08-22T02:51:10.372Z,98533.69
2022-08-22T02:53:40.200Z,98534.69
2022-08-22T02:56:17.045Z,98531.59
2022-08-22T02:59:29.241Z,98524.75
2022-08-22T03:01:56.734Z,98511.50
2022-08-22T03:04:32.765Z,98521.28
2022-08-22T03:07:04.054Z,98519.28
2022-08-22T03:09:47.629Z,98525.63
2022-08-22T03:12:19.000Z,98515.09
2022-08-22T03:15:23.307Z,98512.41
2022-08-22T03:18:04.812Z,98523.00
2022-08-22T03:20:41.044Z,98520.38
2022-08-22T03:23:16.070Z,98521.84
2022-08-22T03:26:07.646Z,98528.91
2022-08-22T03:28:59.041Z,98531.59
2022-08-22T03:31:29.256Z,98528.66
2022-08-22T03:34:15.089Z,98520.38
2022-08-22T03:37:07.016Z,98511.41
2022-08-22T03:40:01.452Z,98522.19
2022-08-22T03:43:06.034Z,98521.53
2022-08-22T03:45:44.986Z,98521.31
2022-08-22T03:48:46.584Z,98513.69
2022-08-22T03:51:51.921Z,98518.25
2022-08-22T03:54:24.970Z,98515.00
2022-08-22T03:57:45.429Z,98510.38
2022-08-22T04:00:36.843Z,98505.72
2022-08-22T04:03:36.895Z,98515.66
2022-08-22T04:06:35.558Z,98514.88
2022-08-22T04:09:24.560Z,98518.59
2022-08-22T04:12:14.296Z,98528.38
2022-08-22T04:14:47.982Z,98524.75
2022-08-22T04:17:21.055Z,98531.06
2022-08-22T04:20:07.054Z,98530.03
2022-08-22T04:23:01.663Z,98524.16
2022-08-22T04:25:36.591Z,98521.69
2022-08-22T04:28:10.661Z,98519.44
2022-08-22T04:30:56.448Z,98520.38
2022-08-22T04:33:32.491Z,98521.84
2022-08-22T04:36:10.515Z,98522.56
2022-08-22T04:38:44.770Z,98521.09
2022-08-22T04:41:18.667Z,98510.34
2022-08-22T04:43:51.202Z,98512.31
2022-08-22T04:49:08.215Z,98506.56
2022-08-22T04:51:46.864Z,98511.09
2022-08-22T04:54:44.056Z,98508.44
2022-08-22T04:57:22.793Z,98513.13
2022-08-22T04:59:51.165Z,98508.44
2022-08-22T05:02:24.480Z,98495.56
2022-08-22T05:05:00.567Z,98503.38
2022-08-22T05:07:36.230Z,98491.63
2022-08-22T05:10:13.874Z,98486.69
2022-08-22T05:13:00.832Z,98484.22
2022-08-22T05:15:37.877Z,98487.69
2022-08-22T05:18:16.959Z,98480.22
2022-08-22T05:20:49.241Z,98487.53
2022-08-22T05:23:36.734Z,98487.44
2022-08-22T05:26:06.169Z,98477.97
2022-08-22T05:28:43.985Z,98467.72
2022-08-22T05:31:18.601Z,98475.34
2022-08-22T05:34:04.940Z,98471.72
2022-08-22T05:36:37.243Z,98477.84
2022-08-22T05:39:16.596Z,98474.91
2022-08-22T05:41:45.023Z,98478.47
2022-08-22T05:44:25.937Z,98471.91
2022-08-22T05:47:19.146Z,98473.53
2022-08-22T05:49:57.802Z,98462.53
2022-08-22T05:52:33.367Z,98475.66
2022-08-22T05:55:26.731Z,98476.78
2022-08-22T05:58:13.146Z,98481.47
2022-08-22T06:00:44.797Z,98482.91
2022-08-22T06:03:39.227Z,98474.84
2022-08-22T06:06:17.886Z,98465.63
2022-08-22T06:08:56.277Z,98464.91
2022-08-22T06:11:34.038Z,98477.63
2022-08-22T06:14:32.692Z,98480.31
2022-08-22T06:17:09.132Z,98474.66
2022-08-22T06:19:40.584Z,98483.63
2022-08-22T06:22:08.595Z,98480.66
2022-08-22T06:24:40.769Z,98470.41
2022-08-22T06:27:14.606Z,98472.59
2022-08-22T06:29:49.212Z,98476.97
2022-08-22T06:32:44.502Z,98477.38
2022-08-22T06:35:22.626Z,98485.69
2022-08-22T06:37:51.874Z,98475.94
2022-08-22T06:40:19.300Z,98481.59
2022-08-22T06:42:51.725Z,98481.59
2022-08-22T06:45:23.014Z,98482.34
2022-08-22T06:48:00.281Z,98481.31
2022-08-22T06:50:35.054Z,98480.06
2022-08-22T06:53:07.909Z,98485.44
2022-08-22T06:55:39.376Z,98485.44
2022-08-22T06:58:12.600Z,98487.44
2022-08-22T07:00:42.815Z,98481.56
2022-08-22T07:03:12.767Z,98488.13
2022-08-22T07:05:43.132Z,98485.44
2022-08-22T07:08:20.700Z,98489.59
2022-08-22T07:10:58.869Z,98496.00
2022-08-22T07:13:28.659Z,98498.25
2022-08-22T07:16:00.119Z,98501.50
2022-08-22T07:18:29.955Z,98502.81
2022-08-22T07:21:04.623Z,98502.63
2022-08-22T07:23:40.282Z,98502.72
2022-08-22T07:26:26.591Z,98500.28
2022-08-22T07:29:05.054Z,98502.03
2022-08-22T07:31:34.893Z,98497.84
2022-08-22T07:34:20.270Z,98503.38
2022-08-22T07:37:05.880Z,98494.53
2022-08-22T07:39:43.188Z,98500.06
2022-08-22T07:42:21.851Z,98500.13
2022-08-22T07:44:51.798Z,98505.66
2022-08-22T07:47:26.321Z,98509.13
2022-08-22T07:50:00.472Z,98508.91
2022-08-22T07:52:34.566Z,98499.19
2022-08-22T07:55:25.842Z,98512.56
2022-08-22T07:57:58.591Z,98512.72
2022-08-22T08:00:29.891Z,98517.31
2022-08-22T08:03:02.054Z,98510.44
2022-08-22T08:05:33.086Z,98519.34
2022-08-22T08:08:07.011Z,98512.88
2022-08-22T08:10:37.680Z,98516.47
2022-08-22T08:13:13.488Z,98519.09
2022-08-22T08:15:45.697Z,98513.63
2022-08-22T08:18:19.659Z,98515.81
2022-08-22T08:20:55.135Z,98516.09
2022-08-22T08:23:23.917Z,98514.00
2022-08-22T08:25:58.218Z,98515.72
2022-08-22T08:28:34.803Z,98509.34
2022-08-22T08:31:19.138Z,98513.34
2022-08-22T08:33:48.744Z,98508.31
2022-08-22T08:36:50.269Z,98506.56
2022-08-22T08:39:23.497Z,98505.25
2022-08-22T08:42:15.370Z,98507.69
2022-08-22T08:45:09.832Z,98501.38
2022-08-22T08:48:14.363Z,98499.88
2022-08-22T08:50:50.222Z,98501.28
2022-08-22T08:53:57.564Z,98505.50
2022-08-22T08:56:44.952Z,98502.59
2022-08-22T08:59:34.946Z,98499.69
2022-08-22T09:05:31.491Z,98496.53
2022-08-22T09:08:18.540Z,98493.34
2022-08-22T09:11:12.009Z,98489.56
2022-08-22T09:17:42.859Z,98485.72
2022-08-22T09:20:31.397Z,98482.56
2022-08-22T09:23:26.321Z,98490.44
2022-08-22T09:25:55.968Z,98487.13
2022-08-22T09:28:32.727Z,98491.75
2022-08-22T09:31:16.910Z,98486.34
2022-08-22T09:33:59.987Z,98490.72
2022-08-22T09:36:56.693Z,98488.69
2022-08-22T09:39:31.882Z,98499.25
2022-08-22T09:42:51.407Z,98499.66
2022-08-22T09:45:50.067Z,98501.34
2022-08-22T09:48:35.397Z,98508.88
2022-08-22T09:51:32.166Z,98509.19
2022-08-22T09:54:02.636Z,98508.78
2022-08-22T09:56:59.092Z,98500.31
2022-08-22T09:59:50.371Z,98505.47
2022-08-22T10:02:44.787Z,98505.47
2022-08-22T10:05:35.281Z,98509.38
2022-08-22T10:08:46.234Z,98497.88
2022-08-22T10:11:13.314Z,98514.25
2022-08-22T10:14:00.550Z,98517.44
2022-08-22T10:16:49.949Z,98523.06
2022-08-22T10:19:46.190Z,98521.63
2022-08-22T10:22:34.500Z,98516.44
2022-08-22T10:25:25.135Z,98525.25
2022-08-22T10:28:10.778Z,98525.53
2022-08-22T10:31:16.171Z,98527.72
2022-08-22T10:34:09.879Z,98521.81
2022-08-22T10:36:36.939Z,98531.53
2022-08-22T10:39:09.482Z,98525.78
2022-08-22T10:42:03.685Z,98524.06
2022-08-22T10:44:49.362Z,98534.34
2022-08-22T10:47:22.525Z,98535.66
2022-08-22T10:49:54.893Z,98536.59
2022-08-22T10:52:30.937Z,98530.25
2022-08-22T10:55:13.827Z,98527.94
2022-08-22T10:58:17.959Z,98526.91
2022-08-22T11:00:54.503Z,98532.59
2022-08-22T11:03:47.870Z,98521.13
2022-08-22T11:06:19.704Z,98526.06
2022-08-22T11:08:46.742Z,98513.53
2022-08-22T11:11:23.083Z,98508.88
2022-08-22T11:14:33.295Z,98510.34
2022-08-22T11:17:27.525Z,98508.56
2022-08-22T11:20:25.911Z,98499.94
2022-08-22T11:23:08.682Z,98497.78
2022-08-22T11:26:06.123Z,98497.03
2022-08-22T11:29:16.817Z,98493.44
2022-08-22T11:32:05.953Z,98494.75
2022-08-22T11:34:42.295Z,98487.84
2022-08-22T11:37:43.383Z,98496.91
2022-08-22T11:40:32.065Z,98484.34
2022-08-22T11:43:03.212Z,98486.88
2022-08-22T11:45:41.213Z,98486.34
2022-08-22T11:48:15.114Z,98481.16
2022-08-22T11:51:17.605Z,98482.97
2022-08-22T11:54:12.429Z,98481.94
2022-08-22T11:56:50.333Z,98475.47
2022-08-22T11:59:28.798Z,98480.88
2022-08-22T12:02:01.552Z,98464.69
2022-08-22T12:04:46.987Z,98462.19
2022-08-22T12:07:13.933Z,98467.94
2022-08-22T12:09:52.294Z,98468.44
2022-08-22T12:12:25.547Z,98471.00
2022-08-22T12:15:09.216Z,98463.66
2022-08-22T12:18:03.593Z,98458.25
2022-08-22T12:20:34.135Z,98456.44
2022-08-22T12:23:43.502Z,98462.91
2022-08-22T12:26:25.835Z,98454.34
2022-08-22T12:29:15.221Z,98457.50
2022-08-22T12:31:58.855Z,98446.72
2022-08-22T12:34:34.833Z,98440.03
2022-08-22T12:37:30.344Z,98447.28
2022-08-22T12:40:19.948Z,98447.81
2022-08-22T12:43:18.754Z,98445.84
2022-08-22T12:45:56.907Z,98442.59
2022-08-22T12:48:49.354Z,98447.88
2022-08-22T12:51:55.793Z,98436.69
2022-08-22T12:54:27.351Z,98442.81
2022-08-22T12:57:03.011Z,98440.50
2022-08-22T12:59:40.867Z,98436.16
2022-08-22T13:02:19.311Z,98435.19
2022-08-22T13:05:11.853Z,98430.19
2022-08-22T13:07:57.717Z,98432.19
2022-08-22T13:10:44.957Z,98429.50
2022-08-22T13:13:38.710Z,98424.50
2022-08-22T13:16:13.489Z,98423.06
2022-08-22T13:18:53.927Z,98425.97
2022-08-22T13:21:35.939Z,98424.16
2022-08-22T13:24:39.211Z,98428.50
2022-08-22T13:27:50.576Z,98432.66
2022-08-22T13:30:33.815Z,98440.41
2022-08-22T13:33:35.189Z,98432.47
2022-08-22T13:36:07.244Z,98428.16
2022-08-22T13:38:52.275Z,98429.59
2022-08-22T13:41:28.309Z,98431.06
2022-08-22T13:44:05.075Z,98431.63
2022-08-22T13:46:35.543Z,98432.88
2022-08-22T13:49:08.058Z,98429.31
2022-08-22T13:51:54.231Z,98425.00
2022-08-22T13:54:27.562Z,98421.00
2022-08-22T13:57:05.266Z,98416.69
2022-08-22T13:59:51.529Z,98405.19
2022-08-22T14:02:43.381Z,98414.53
2022-08-22T14:05:17.085Z,98406.41
2022-08-22T14:07:58.291Z,98412.00
2022-08-22T14:10:30.833Z,98406.59
2022-08-22T14:12:57.945Z,98406.97
2022-08-22T14:15:45.909Z,98408.44
2022-08-22T14:18:30.339Z,98415.63
2022-08-22T14:21:20.263Z,98398.84
2022-08-22T14:23:52.175Z,98404.78
2022-08-22T14:26:47.273Z,98401.19
2022-08-22T14:29:18.690Z,98404.44
2022-08-22T14:32:06.080Z,98402.44
2022-08-22T14:34:40.026Z,98399.34
2022-08-22T14:37:21.295Z,98408.00
2022-08-22T14:40:12.429Z,98395.75
2022-08-22T14:42:39.476Z,98401.66
2022-08-22T14:45:17.553Z,98403.28
2022-08-22T14:48:30.659Z,98406.09
2022-08-22T14:51:00.544Z,98398.28
2022-08-22T14:53:35.097Z,98407.09
2022-08-22T14:56:10.885Z,98408.81
2022-08-22T14:59:04.872Z,98410.94
2022-08-22T15:01:50.962Z,98404.72
2022-08-22T15:04:45.853Z,98405.16
2022-08-22T15:07:24.076Z,98403.38
2022-08-22T15:09:58.886Z,98406.03
2022-08-22T15:12:32.911Z,98392.31
2022-08-22T15:15:49.816Z,98388.94
2022-08-22T15:18:30.232Z,98378.75
2022-08-22T15:21:24.206Z,98385.28
2022-08-22T15:23:55.247Z,98384.72
2022-08-22T15:26:50.815Z,98388.00
2022-08-22T15:29:22.890Z,98388.13
2022-08-22T15:31:52.462Z,98396.44
2022-08-22T15:34:39.655Z,98387.78
2022-08-22T15:37:20.148Z,98385.59
2022-08-22T15:40:02.713Z,98396.06
2022-08-22T15:42:44.781Z,98396.00
2022-08-22T15:45:36.211Z,98396.72
2022-08-22T15:48:10.116Z,98413.31
2022-08-22T15:50:39.585Z,98410.03
2022-08-22T15:53:11.314Z,98403.28
2022-08-22T15:56:01.792Z,98402.88
2022-08-22T15:58:37.452Z,98398.88
2022-08-22T16:01:12.600Z,98399.94
2022-08-22T16:04:14.126Z,98398.00
2022-08-22T16:06:51.416Z,98402.97
2022-08-22T16:09:33.468Z,98399.16
2022-08-22T16:12:04.586Z,98403.19
2022-08-22T16:14:34.512Z,98402.00
2022-08-22T16:17:02.629Z,98412.06
2022-08-22T16:19:32.031Z,98394.97
2022-08-22T16:22:01.876Z,98404.72
2022-08-22T16:24:33.880Z,98400.25
2022-08-22T16:27:25.052Z,98399.53
2022-08-22T16:30:07.458Z,98406.78
2022-08-22T16:32:35.521Z,98409.63
2022-08-22T16:35:02.575Z,98398.66
2022-08-22T16:37:56.042Z,98392.31
2022-08-22T16:40:25.600Z,98402.59
2022-08-22T16:43:12.705Z,98399.31
2022-08-22T16:45:42.397Z,98395.84
2022-08-22T16:48:36.998Z,98386.94
2022-08-22T16:51:09.723Z,98389.25
2022-08-22T16:53:45.770Z,98394.25
2022-08-22T16:56:32.701Z,98393.16
2022-08-22T16:59:23.734Z,98386.19
2022-08-22T17:02:23.780Z,98388.75
2022-08-22T17:04:57.328Z,98386.53
2022-08-22T17:07:43.878Z,98386.13
2022-08-22T17:10:34.887Z,98384.19
2022-08-22T17:13:06.696Z,98391.59
2022-08-22T17:15:55.845Z,98391.09
2022-08-22T17:18:44.905Z,98391.47
2022-08-22T17:21:30.580Z,98395.78
2022-08-22T17:24:32.399Z,98400.75
2022-08-22T17:27:14.304Z,98401.88
2022-08-22T17:29:58.987Z,98392.44
2022-08-22T17:32:59.128Z,98402.69
2022-08-22T17:35:55.316Z,98393.44
2022-08-22T17:38:31.012Z,98393.53
2022-08-22T17:41:02.053Z,98385.09
2022-08-22T17:43:33.421Z,98399.22
2022-08-22T17:46:36.162Z,98373.06
2022-08-22T17:49:30.417Z,98377.13
2022-08-22T17:52:06.710Z,98374.94
2022-08-22T17:54:37.225Z,98369.22
2022-08-22T17:57:12.828Z,98379.47
2022-08-22T17:59:46.134Z,98376.34
2022-08-22T18:02:25.142Z,98382.44
2022-08-22T18:05:07.479Z,98374.97
2022-08-22T18:08:37.304Z,98365.47
2022-08-22T18:11:12.605Z,98373.97
2022-08-22T18:13:53.000Z,98366.22
2022-08-22T18:16:34.944Z,98366.44
2022-08-22T18:19:20.454Z,98369.91
2022-08-22T18:21:53.034Z,98368.25
2022-08-22T18:24:36.869Z,98366.31
2022-08-22T18:27:34.981Z,98365.38
2022-08-22T18:30:17.411Z,98361.22
2022-08-22T18:32:54.860Z,98367.50
2022-08-22T18:35:31.748Z,98363.03
2022-08-22T18:38:19.228Z,98361.66
2022-08-22T18:40:53.727Z,98359.94
2022-08-22T18:43:44.784Z,98357.81
2022-08-22T18:46:31.965Z,98359.66
2022-08-22T18:49:15.553Z,98373.41
2022-08-22T18:51:44.125Z,98363.88
2022-08-22T18:54:11.835Z,98366.94
2022-08-22T18:56:57.652Z,98367.09
2022-08-22T19:00:10.747Z,98373.06
2022-08-22T19:03:03.702Z,98367.25
2022-08-22T19:05:46.137Z,98363.31
2022-08-22T19:08:31.435Z,98362.50
2022-08-22T19:11:17.010Z,98360.59
2022-08-22T19:14:05.971Z,98355.69
2022-08-22T19:16:51.231Z,98353.94
2022-08-22T19:19:53.451Z,98349.88
2022-08-22T19:22:22.813Z,98351.16
2022-08-22T19:25:11.122Z,98346.69
2022-08-22T19:27:42.463Z,98352.56
2022-08-22T19:30:44.547Z,98356.06
2022-08-22T19:33:34.606Z,98355.03
2022-08-22T19:36:12.604Z,98359.28
2022-08-22T19:39:00.270Z,98360.47
2022-08-22T19:41:51.011Z,98359.34
2022-08-22T19:44:21.178Z,98364.84
2022-08-22T19:47:17.698Z,98364.03
2022-08-22T19:49:55.440Z,98372.81
2022-08-22T19:53:00.398Z,98382.03
2022-08-22T19:55:37.067Z,98380.28
2022-08-22T19:58:33.448Z,98371.91
2022-08-22T20:01:25.559Z,98375.34
2022-08-22T20:04:01.410Z,98396.03
2022-08-22T20:06:43.872Z,98403.81
2022-08-22T20:09:30.517Z,98401.44
2022-08-22T20:12:16.714Z,98384.78
2022-08-22T20:14:45.933Z,98387.06
2022-08-22T20:17:25.141Z,98389.97
2022-08-22T20:20:28.011Z,98399.47
2022-08-22T20:23:11.759Z,98396.69
2022-08-22T20:25:51.366Z,98394.94
2022-08-22T20:28:34.174Z,98388.91
2022-08-22T20:31:03.680Z,98394.69
2022-08-22T20:33:58.316Z,98401.75
2022-08-22T20:36:28.315Z,98402.75
2022-08-22T20:39:18.517Z,98400.84
2022-08-22T20:42:03.611Z,98415.41
2022-08-22T20:44:53.429Z,98416.47
2022-08-22T20:47:26.670Z,98417.50
2022-08-22T20:50:10.538Z,98425.25
2022-08-22T20:52:54.309Z,98419.56
2022-08-22T20:55:31.290Z,98427.28
2022-08-22T20:58:20.968Z,98420.56
2022-08-22T21:00:52.979Z,98418.72
2022-08-22T21:03:30.366Z,98426.34
2022-08-22T21:06:17.386Z,98419.19
2022-08-22T21:08:46.555Z,98424.47
2022-08-22T21:11:40.636Z,98430.97
2022-08-22T21:14:22.247Z,98431.41
2022-08-22T21:16:50.412Z,98436.03
2022-08-22T21:19:20.354Z,98436.91
2022-08-22T21:21:47.657Z,98443.09
2022-08-22T21:24:15.052Z,98448.09
2022-08-22T21:26:54.097Z,98451.22
2022-08-22T21:29:26.810Z,98461.75
2022-08-22T21:32:14.867Z,98462.59
2022-08-22T21:34:44.622Z,98465.13
2022-08-22T21:37:26.237Z,98466.81
2022-08-22T21:40:18.079Z,98470.53
2022-08-22T21:43:00.600Z,98465.16
2022-08-22T21:45:47.211Z,98462.69
2022-08-22T21:48:46.288Z,98460.00
2022-08-22T21:51:42.295Z,98465.75
2022-08-22T21:57:00.360Z,98461.16
2022-08-22T21:59:51.037Z,98467.53
2022-08-22T22:02:29.660Z,98462.44
2022-08-22T22:05:00.330Z,98461.50
2022-08-22T22:07:29.170Z,98465.72
2022-08-22T22:09:56.573Z,98468.09
2022-08-22T22:12:24.643Z,98471.91
2022-08-22T22:14:51.954Z,98475.34
2022-08-22T22:17:19.905Z,98480.72
2022-08-22T22:19:47.375Z,98479.25
2022-08-22T22:22:14.477Z,98485.91
2022-08-22T22:24:45.086Z,98491.16
2022-08-22T22:27:16.785Z,98495.84
2022-08-22T22:29:44.191Z,98493.66
2022-08-22T22:32:11.348Z,98493.59
2022-08-22T22:34:39.497Z,98493.53
2022-08-22T22:37:08.752Z,98496.84
2022-08-22T22:39:36.945Z,98494.78
2022-08-22T22:42:05.088Z,98482.31
2022-08-22T22:44:32.275Z,98478.09
2022-08-22T22:47:02.972Z,98473.63
2022-08-22T22:49:31.794Z,98460.56
2022-08-22T22:51:59.963Z,98458.19
2022-08-22T22:54:27.575Z,98460.09
2022-08-22T22:56:58.654Z,98454.72
2022-08-22T22:59:28.106Z,98441.75
2022-08-22T23:02:11.114Z,98443.81
2022-08-22T23:04:41.292Z,98433.72
2022-08-22T23:07:10.038Z,98432.16
2022-08-22T23:09:38.469Z,98437.00
2022-08-22T23:12:13.746Z,98444.56
2022-08-22T23:14:41.042Z,98447.41
2022-08-22T23:17:08.390Z,98448.22
2022-08-22T23:19:35.930Z,98445.72
2022-08-22T23:22:03.103Z,98442.13
2022-08-22T23:24:31.376Z,98444.81
2022-08-22T23:26:59.330Z,98447.63
2022-08-22T23:29:26.362Z,98440.94
2022-08-22T23:31:57.480Z,98443.56
2022-08-22T23:34:31.932Z,98441.06
2022-08-22T23:37:01.550Z,98440.06
2022-08-22T23:39:30.368Z,98438.03
2022-08-22T23:41:59.102Z,98435.06
2022-08-22T23:44:32.663Z,98430.38
2022-08-22T23:46:59.892Z,98431.81
2022-08-22T23:49:29.656Z,98425.25
2022-08-22T23:51:57.191Z,98433.50
2022-08-22T23:54:24.466Z,98432.06
2022-08-22T23:56:54.987Z,98434.94
2022-08-22T23:59:26.477Z,98439.63
